Time;durP1;ratioP1;P1;durP2;ratioP2;P2;SDS_P1;SDS_P2;PMS_P1;PMS_P2;Temp;Humidity;BMP_temperature;BMP_pressure;BME280_temperature;BME280_humidity;BME280_pressure;Samples;Min_cycle;Max_cycle;Signal;HPM_P1;HPM_P2
2021/11/20 00:02:25;;;;;;;2.05;1.25;;;21.40;47.20;;;;;;5025057;28;20433;-47
2021/11/20 00:04:52;;;;;;;1.10;0.80;;;21.40;47.20;;;;;;5024108;28;20468;-49
2021/11/20 00:07:18;;;;;;;1.30;0.80;;;21.40;47.20;;;;;;5025508;28;20084;-47
2021/11/20 00:09:44;;;;;;;1.25;0.88;;;21.40;47.80;;;;;;5025446;28;20032;-46
2021/11/20 00:12:22;;;;;;;1.40;1.00;;;21.40;47.20;;;;;;5022686;28;20029;-49
2021/11/20 00:14:48;;;;;;;0.90;0.70;;;21.40;47.20;;;;;;5021456;28;20079;-48
2021/11/20 00:17:14;;;;;;;1.45;0.98;;;21.40;47.20;;;;;;5026486;28;20457;-46
2021/11/20 00:19:40;;;;;;;1.88;0.95;;;21.40;47.20;;;;;;5025094;28;20052;-45
2021/11/20 00:22:09;;;;;;;1.50;0.80;;;21.40;47.20;;;;;;5026924;28;20168;-48
2021/11/20 00:24:47;;;;;;;2.15;1.00;;;21.40;47.10;;;;;;5026879;28;20455;-46
2021/11/20 00:27:21;;;;;;;1.98;1.10;;;21.40;47.10;;;;;;5025332;28;20056;-47
2021/11/20 00:33:05;;;;;;;1.30;0.80;;;21.30;47.10;;;;;;5011558;28;20033;-47
2021/11/20 00:35:40;;;;;;;1.40;0.93;;;21.40;47.10;;;;;;5022343;28;20079;-45
2021/11/20 00:38:09;;;;;;;1.58;1.00;;;21.30;47.10;;;;;;5031143;28;20051;-51
2021/11/20 00:40:45;;;;;;;0.73;0.68;;;21.40;47.10;;;;;;5027276;28;20026;-47
2021/11/20 00:43:12;;;;;;;1.27;0.95;;;21.30;47.10;;;;;;5020366;28;20496;-47
2021/11/20 00:45:38;;;;;;;1.83;0.80;;;21.30;47.10;;;;;;5021595;28;20038;-45
2021/11/20 00:48:05;;;;;;;1.77;1.35;;;21.30;47.10;;;;;;5019831;28;20171;-48
2021/11/20 00:50:33;;;;;;;1.30;0.82;;;21.30;47.10;;;;;;5026228;28;20029;-50
2021/11/20 00:52:58;;;;;;;1.10;0.85;;;21.30;47.10;;;;;;5023316;28;20453;-48
2021/11/20 00:55:27;;;;;;;1.95;1.02;;;21.30;47.10;;;;;;5029055;28;20053;-46
2021/11/20 00:57:54;;;;;;;1.42;1.08;;;21.30;47.10;;;;;;5023044;28;20041;-46
2021/11/20 01:00:27;;;;;;;1.83;0.82;;;21.30;47.10;;;;;;5020108;28;20027;-46
2021/11/20 01:02:56;;;;;;;1.63;0.88;;;21.30;47.10;;;;;;5023449;28;20471;-46
2021/11/20 01:05:22;;;;;;;1.33;0.90;;;21.30;47.10;;;;;;5023200;28;20030;-47
2021/11/20 01:07:48;;;;;;;1.48;1.02;;;21.30;47.10;;;;;;5023693;28;20348;-49
2021/11/20 01:10:19;;;;;;;2.58;0.90;;;21.20;47.10;;;;;;5025806;28;20038;-50
2021/11/20 01:12:45;;;;;;;0.98;0.85;;;21.30;47.10;;;;;;5026004;28;20037;-47
2021/11/20 01:15:17;;;;;;;1.20;0.75;;;21.20;47.00;;;;;;5021332;28;20076;-47
2021/11/20 01:17:45;;;;;;;2.17;1.10;;;21.20;47.00;;;;;;5022534;28;20025;-47
2021/11/20 01:20:12;;;;;;;2.00;0.98;;;21.20;47.00;;;;;;5027163;28;20133;-49
2021/11/20 01:22:51;;;;;;;1.95;1.23;;;21.20;47.00;;;;;;5022136;28;20061;-48
2021/11/20 01:25:25;;;;;;;1.08;0.98;;;21.20;47.00;;;;;;5022647;28;20030;-47
2021/11/20 01:28:28;;;;;;;1.20;0.80;;;21.20;47.10;;;;;;5002445;28;20038;-48
2021/11/20 01:31:06;;;;;;;1.10;0.88;;;21.20;47.00;;;;;;5020345;28;20034;-48
2021/11/20 01:33:40;;;;;;;1.90;1.08;;;21.20;47.00;;;;;;5036011;28;20021;-45
2021/11/20 01:36:08;;;;;;;1.85;1.08;;;21.20;47.10;;;;;;5022235;28;20491;-48
2021/11/20 01:38:35;;;;;;;1.55;0.90;;;21.20;47.10;;;;;;5022637;28;20018;-49
2021/11/20 01:41:30;;;;;;;1.65;0.98;;;21.20;47.10;;;;;;5021822;28;20021;-45
2021/11/20 01:44:18;;;;;;;1.27;1.13;;;21.20;47.10;;;;;;5019130;28;20049;-48
2021/11/20 01:46:49;;;;;;;2.10;1.08;;;21.20;47.10;;;;;;5019055;28;20135;-50
2021/11/20 01:49:22;;;;;;;1.25;0.85;;;21.20;47.10;;;;;;5023786;28;20034;-45
2021/11/20 01:52:36;;;;;;;1.95;1.00;;;21.20;47.10;;;;;;5025191;28;20026;-47
2021/11/20 01:55:16;;;;;;;1.85;1.02;;;21.20;47.00;;;;;;5020722;28;20042;-47
2021/11/20 01:58:19;;;;;;;1.73;1.05;;;21.10;47.00;;;;;;5022913;28;20030;-49
2021/11/20 02:00:52;;;;;;;;;;;21.20;47.10;;;;;;5025967;28;20052;-47
2021/11/20 02:03:18;;;;;;;1.38;0.90;;;21.10;47.10;;;;;;5024310;28;19920;-47
2021/11/20 02:06:19;;;;;;;1.30;0.73;;;21.10;47.10;;;;;;5023204;28;20092;-51
2021/11/20 02:09:27;;;;;;;1.42;0.93;;;21.10;47.00;;;;;;5022652;28;20038;-51
2021/11/20 02:12:23;;;;;;;1.42;1.00;;;21.10;47.00;;;;;;5023791;28;20080;-45
2021/11/20 02:14:50;;;;;;;1.67;1.08;;;21.10;47.00;;;;;;5022191;28;20053;-47
2021/11/20 02:17:28;;;;;;;1.77;0.80;;;21.10;47.10;;;;;;5020948;28;20076;-45
2021/11/20 02:20:05;;;;;;;0.88;0.80;;;21.10;47.00;;;;;;5035970;28;20026;-47
2021/11/20 02:22:40;;;;;;;1.65;1.23;;;21.10;47.10;;;;;;5020399;28;20022;-50
2021/11/20 02:25:12;;;;;;;0.93;0.82;;;21.10;47.10;;;;;;5021241;28;20092;-49
2021/11/20 02:28:04;;;;;;;1.20;1.00;;;21.10;47.10;;;;;;5015268;28;20041;-48
2021/11/20 02:30:32;;;;;;;1.17;0.90;;;21.10;47.10;;;;;;5019706;28;20425;-49
2021/11/20 02:33:11;;;;;;;1.38;1.20;;;21.10;47.10;;;;;;5018826;28;20033;-48
2021/11/20 02:35:54;;;;;;;1.52;1.10;;;21.10;47.00;;;;;;5024602;28;20041;-50
2021/11/20 02:38:29;;;;;;;0.98;0.88;;;21.10;47.00;;;;;;5019395;28;20410;-52
2021/11/20 02:40:57;;;;;;;1.70;1.08;;;21.10;47.00;;;;;;5024607;28;20133;-46
2021/11/20 02:43:25;;;;;;;1.25;0.90;;;21.00;47.00;;;;;;5017629;28;20018;-50
2021/11/20 02:46:04;;;;;;;1.95;1.40;;;21.10;47.00;;;;;;5020872;28;20048;-46
2021/11/20 02:48:30;;;;;;;1.38;1.15;;;21.10;47.00;;;;;;5020717;28;20064;-47
2021/11/20 02:51:10;;;;;;;1.92;1.17;;;21.10;47.00;;;;;;5020211;28;20029;-48
2021/11/20 02:53:45;;;;;;;1.40;1.00;;;21.10;46.90;;;;;;5020181;28;20099;-49
2021/11/20 02:56:16;;;;;;;1.52;1.10;;;21.10;46.90;;;;;;5003022;28;20054;-45
2021/11/20 02:58:42;;;;;;;3.10;1.17;;;21.00;46.90;;;;;;5022646;28;20025;-47
2021/11/20 03:01:19;;;;;;;2.15;1.38;;;21.00;46.90;;;;;;5023727;28;20049;-47
2021/11/20 03:03:45;;;;;;;1.55;1.10;;;21.00;46.80;;;;;;5020005;28;20111;-49
2021/11/20 03:06:11;;;;;;;1.63;1.10;;;21.00;46.90;;;;;;5021220;28;20472;-50
2021/11/20 03:08:37;;;;;;;2.25;1.17;;;21.00;46.80;;;;;;5025118;28;20030;-46
2021/11/20 03:11:09;;;;;;;2.38;1.38;;;21.00;46.80;;;;;;5017132;28;20452;-46
2021/11/20 03:13:38;;;;;;;1.70;1.20;;;21.00;46.80;;;;;;5023944;28;20445;-49
2021/11/20 03:16:08;;;;;;;1.40;1.20;;;21.00;46.80;;;;;;5019657;28;20037;-48
2021/11/20 03:18:34;;;;;;;1.30;1.20;;;21.00;46.80;;;;;;5020758;28;20376;-47
2021/11/20 03:21:00;;;;;;;1.50;1.10;;;21.00;46.80;;;;;;5025479;28;20129;-50
2021/11/20 03:23:30;;;;;;;2.50;1.20;;;21.00;46.80;;;;;;5020381;28;20021;-46
2021/11/20 03:25:56;;;;;;;1.50;1.25;;;21.00;46.80;;;;;;5020308;28;20117;-46
2021/11/20 03:28:22;;;;;;;1.25;1.10;;;20.90;46.70;;;;;;5020536;28;20404;-49
2021/11/20 03:30:49;;;;;;;1.75;1.35;;;21.00;46.80;;;;;;5021972;28;20116;-49
2021/11/20 03:33:15;;;;;;;1.65;1.45;;;21.00;46.80;;;;;;5024281;28;20070;-47
2021/11/20 03:35:43;;;;;;;2.42;1.50;;;21.00;46.70;;;;;;5015185;28;20079;-47
2021/11/20 03:38:22;;;;;;;1.70;1.17;;;21.00;46.70;;;;;;5023968;28;20360;-45
2021/11/20 03:40:52;;;;;;;1.15;1.05;;;21.00;46.70;;;;;;5021879;28;20025;-47
2021/11/20 03:43:19;;;;;;;3.00;1.50;;;20.90;46.70;;;;;;5024040;28;20029;-46
2021/11/20 03:45:48;;;;;;;3.25;1.55;;;21.00;46.70;;;;;;5022953;28;20180;-46
2021/11/20 03:48:15;;;;;;;1.40;1.20;;;20.90;46.70;;;;;;5024572;28;20191;-45
2021/11/20 03:50:42;;;;;;;1.38;1.20;;;20.90;46.70;;;;;;5020968;28;20022;-50
2021/11/20 03:53:08;;;;;;;2.22;1.40;;;20.90;46.70;;;;;;5023193;28;20030;-46
2021/11/20 03:55:37;;;;;;;2.38;1.30;;;20.90;46.70;;;;;;5027980;28;20064;-47
2021/11/20 03:58:06;;;;;;;1.63;1.10;;;20.90;46.70;;;;;;5026960;28;20476;-49
2021/11/20 04:00:36;;;;;;;1.98;1.40;;;20.90;46.70;;;;;;5027092;28;20464;-49
2021/11/20 04:03:03;;;;;;;1.65;1.27;;;20.90;46.60;;;;;;5024048;28;20044;-49
2021/11/20 04:05:32;;;;;;;1.20;1.08;;;20.90;46.60;;;;;;5024489;28;20032;-48
2021/11/20 04:07:59;;;;;;;1.60;1.50;;;21.00;46.70;;;;;;5020509;28;20045;-53
2021/11/20 04:10:25;;;;;;;1.95;1.50;;;20.90;46.60;;;;;;5021280;28;20064;-47
2021/11/20 04:12:50;;;;;;;1.42;1.27;;;20.90;46.60;;;;;;5023692;28;20066;-46
2021/11/20 04:15:20;;;;;;;1.67;1.48;;;20.90;46.60;;;;;;5026655;28;20057;-49
2021/11/20 04:17:47;;;;;;;1.65;1.52;;;20.90;46.50;;;;;;5027826;28;20038;-50
2021/11/20 04:20:18;;;;;;;1.70;1.42;;;20.90;46.50;;;;;;5022886;28;20021;-47
2021/11/20 04:22:45;;;;;;;1.48;1.38;;;20.90;46.50;;;;;;5025043;28;20433;-47
2021/11/20 04:25:13;;;;;;;1.85;1.40;;;20.90;46.50;;;;;;5024823;28;20151;-50
2021/11/20 04:27:52;;;;;;;1.92;1.30;;;20.90;46.50;;;;;;5022825;28;20148;-46
2021/11/20 04:30:25;;;;;;;1.40;1.30;;;20.90;46.50;;;;;;5026828;28;20030;-47
2021/11/20 04:32:52;;;;;;;1.60;1.38;;;20.90;46.40;;;;;;5027211;28;20029;-46
2021/11/20 04:35:22;;;;;;;1.65;1.50;;;20.90;46.40;;;;;;5025336;28;20041;-46
2021/11/20 04:37:48;;;;;;;1.50;1.40;;;20.90;46.40;;;;;;5024412;28;20017;-46
2021/11/20 04:40:16;;;;;;;1.70;1.60;;;20.90;46.30;;;;;;5026599;28;20045;-46
2021/11/20 04:42:42;;;;;;;4.30;1.50;;;20.90;46.30;;;;;;5024136;28;20022;-47
2021/11/20 04:45:10;;;;;;;1.60;1.50;;;20.80;46.10;;;;;;5028647;28;20102;-49
2021/11/20 04:47:36;;;;;;;1.45;1.35;;;20.80;46.10;;;;;;5022546;28;20038;-45
2021/11/20 04:50:03;;;;;;;2.13;1.60;;;20.90;46.20;;;;;;5028762;28;20456;-47
2021/11/20 04:52:32;;;;;;;1.88;1.58;;;20.80;46.10;;;;;;5021149;28;20021;-48
2021/11/20 04:54:58;;;;;;;2.20;1.95;;;20.90;46.20;;;;;;5025658;28;20124;-51
2021/11/20 04:57:24;;;;;;;2.50;2.05;;;20.80;46.20;;;;;;5022384;28;20128;-48
2021/11/20 04:59:49;;;;;;;2.13;1.65;;;20.90;46.20;;;;;;5021952;28;20372;-46
2021/11/20 05:02:21;;;;;;;2.35;1.90;;;20.80;46.10;;;;;;5022271;28;20058;-48
2021/11/20 05:04:46;;;;;;;2.42;2.10;;;20.80;46.20;;;;;;5025275;28;20445;-45
2021/11/20 05:07:14;;;;;;;2.08;1.88;;;20.80;46.20;;;;;;5025084;28;20052;-47
2021/11/20 05:09:40;;;;;;;2.08;1.80;;;20.80;46.10;;;;;;5023476;28;20029;-47
2021/11/20 05:12:07;;;;;;;2.30;2.10;;;20.80;46.10;;;;;;5029825;28;20026;-45
2021/11/20 05:14:37;;;;;;;2.28;2.03;;;20.80;46.10;;;;;;5019558;28;20026;-52
2021/11/20 05:17:05;;;;;;;2.20;2.00;;;20.80;46.10;;;;;;5023265;28;20048;-46
2021/11/20 05:19:31;;;;;;;2.15;1.90;;;20.80;46.20;;;;;;5025230;28;20033;-48
2021/11/20 05:21:58;;;;;;;2.20;2.00;;;20.80;46.10;;;;;;5023287;28;20087;-47
2021/11/20 05:24:24;;;;;;;2.58;2.05;;;20.80;46.10;;;;;;5031662;28;20033;-45
2021/11/20 05:26:53;;;;;;;2.03;1.83;;;20.80;46.10;;;;;;5021343;28;20041;-49
2021/11/20 05:29:30;;;;;;;2.20;2.00;;;20.80;46.10;;;;;;5020840;28;20037;-48
2021/11/20 05:31:59;;;;;;;3.63;2.42;;;20.80;46.10;;;;;;5021599;28;20036;-50
2021/11/20 05:34:26;;;;;;;2.15;1.95;;;20.80;46.10;;;;;;5022543;28;20036;-48
2021/11/20 05:36:52;;;;;;;3.10;2.30;;;20.80;46.20;;;;;;5020984;28;20469;-51
2021/11/20 05:39:21;;;;;;;3.20;2.80;;;20.70;46.10;;;;;;5020027;28;20026;-45
2021/11/20 05:41:48;;;;;;;2.72;2.15;;;20.80;46.10;;;;;;5036590;28;20476;-47
2021/11/20 05:44:15;;;;;;;2.40;2.20;;;20.80;46.10;;;;;;5025762;28;20061;-48
2021/11/20 05:46:51;;;;;;;2.95;2.42;;;20.70;46.10;;;;;;5023107;28;20502;-47
2021/11/20 05:49:18;;;;;;;2.95;2.65;;;20.80;46.20;;;;;;5022858;28;20467;-51
2021/11/20 05:51:44;;;;;;;2.53;2.25;;;20.80;46.10;;;;;;5020911;28;20026;-49
2021/11/20 05:54:12;;;;;;;2.58;2.38;;;20.70;46.10;;;;;;5022338;28;20022;-46
2021/11/20 05:56:38;;;;;;;3.08;2.72;;;20.70;46.10;;;;;;5022293;28;20511;-49
2021/11/20 05:59:05;;;;;;;3.83;2.58;;;20.70;46.10;;;;;;5020802;28;20090;-48
2021/11/20 06:01:32;;;;;;;2.47;2.28;;;20.70;46.10;;;;;;5021469;28;20030;-51
2021/11/20 06:03:58;;;;;;;3.03;2.55;;;20.70;46.10;;;;;;5018495;28;20018;-48
2021/11/20 06:06:26;;;;;;;2.90;2.30;;;20.70;46.10;;;;;;5023661;28;20112;-47
2021/11/20 06:08:55;;;;;;;3.58;3.10;;;20.70;46.10;;;;;;5024638;28;20033;-46
2021/11/20 06:11:21;;;;;;;3.13;2.83;;;20.70;46.10;;;;;;5025809;28;20116;-48
2021/11/20 06:13:48;;;;;;;3.30;2.85;;;20.70;46.10;;;;;;5022067;28;20038;-46
2021/11/20 06:16:26;;;;;;;2.97;2.67;;;20.70;46.70;;;;;;5022244;28;20037;-46
2021/11/20 06:18:52;;;;;;;3.55;2.72;;;20.70;46.10;;;;;;5023239;28;20404;-47
2021/11/20 06:21:20;;;;;;;3.63;3.03;;;20.70;46.10;;;;;;5021764;28;20034;-50
2021/11/20 06:23:46;;;;;;;3.17;2.88;;;20.70;46.10;;;;;;5020963;28;20330;-48
2021/11/20 06:26:14;;;;;;;3.17;2.80;;;20.70;46.10;;;;;;5024240;28;20119;-49
2021/11/20 06:28:41;;;;;;;3.15;2.85;;;20.70;46.10;;;;;;5038971;28;20026;-48
2021/11/20 06:31:13;;;;;;;3.13;2.83;;;20.70;46.10;;;;;;5023708;28;20029;-49
2021/11/20 06:33:42;;;;;;;3.83;3.10;;;20.70;46.10;;;;;;5021079;28;20025;-48
2021/11/20 06:36:46;;;;;;;3.72;3.20;;;20.70;46.00;;;;;;5023582;28;20512;-46
2021/11/20 06:39:22;;;;;;;3.95;3.50;;;20.70;46.10;;;;;;5018132;28;20383;-46
2021/11/20 06:41:49;;;;;;;4.00;3.40;;;20.70;46.10;;;;;;5021341;28;20121;-48
2021/11/20 06:44:15;;;;;;;3.70;3.20;;;20.70;46.00;;;;;;5025857;28;20049;-52
2021/11/20 06:46:43;;;;;;;3.50;3.20;;;20.70;46.00;;;;;;5014280;28;20038;-49
2021/11/20 06:49:09;;;;;;;3.33;3.03;;;20.70;46.00;;;;;;5021032;28;20327;-45
2021/11/20 06:51:46;;;;;;;2.88;2.50;;;20.60;46.00;;;;;;5020399;28;20018;-47
2021/11/20 06:54:32;;;;;;;3.53;3.05;;;20.60;46.00;;;;;;5021412;28;20052;-45
2021/11/20 06:57:49;;;;;;;3.30;2.95;;;20.60;46.10;;;;;;4961989;28;20050;-47
2021/11/20 07:00:29;;;;;;;3.65;3.17;;;20.60;46.10;;;;;;4965518;28;20042;-47
2021/11/20 07:03:20;;;;;;;3.38;3.00;;;20.60;46.10;;;;;;5004991;28;20037;-49
2021/11/20 07:06:02;;;;;;;3.47;3.00;;;20.60;46.10;;;;;;5025297;28;20029;-48
2021/11/20 07:08:29;;;;;;;3.50;2.95;;;20.60;46.10;;;;;;5018900;28;20125;-47
2021/11/20 07:10:57;;;;;;;3.80;3.40;;;20.60;46.10;;;;;;5021544;28;20026;-47
2021/11/20 07:13:23;;;;;;;4.15;3.17;;;20.60;46.10;;;;;;5022234;28;20026;-46
2021/11/20 07:15:50;;;;;;;3.42;3.00;;;20.60;46.00;;;;;;5023172;28;20029;-49
2021/11/20 07:18:18;;;;;;;4.15;3.50;;;20.60;46.00;;;;;;5019557;28;20179;-48
2021/11/20 07:21:02;;;;;;;3.78;3.15;;;20.60;45.90;;;;;;5021332;28;20145;-48
2021/11/20 07:23:48;;;;;;;3.80;3.13;;;20.60;45.90;;;;;;5023753;28;20377;-46
2021/11/20 07:26:14;;;;;;;3.85;3.33;;;20.60;45.90;;;;;;5023490;28;20026;-47
2021/11/20 07:28:41;;;;;;;3.45;2.90;;;20.60;45.80;;;;;;5021498;28;20075;-49
2021/11/20 07:31:06;;;;;;;3.65;3.00;;;20.60;45.80;;;;;;5025517;28;20068;-50
2021/11/20 07:33:36;;;;;;;3.92;3.38;;;20.60;45.80;;;;;;5018993;28;20026;-48
2021/11/20 07:36:04;;;;;;;3.53;3.17;;;20.60;45.80;;;;;;5023603;28;20025;-50
2021/11/20 07:38:37;;;;;;;4.28;3.38;;;20.60;45.70;;;;;;5020635;28;20033;-46
2021/11/20 07:41:04;;;;;;;3.85;3.40;;;20.60;45.70;;;;;;5020914;28;20029;-46
2021/11/20 07:43:32;;;;;;;3.70;3.30;;;20.60;45.70;;;;;;5020241;28;20112;-48
2021/11/20 07:46:05;;;;;;;3.95;3.00;;;20.60;45.70;;;;;;5022749;28;20022;-46
2021/11/20 07:48:34;;;;;;;4.72;3.10;;;20.60;45.70;;;;;;5016244;28;20108;-47
2021/11/20 07:51:03;;;;;;;4.68;3.40;;;20.60;45.70;;;;;;5022762;28;20032;-50
2021/11/20 07:53:42;;;;;;;4.53;3.25;;;20.60;45.70;;;;;;5020795;28;20116;-45
2021/11/20 07:56:11;;;;;;;5.60;3.03;;;20.60;45.60;;;;;;5021641;28;20405;-45
2021/11/20 07:58:38;;;;;;;4.32;3.25;;;20.60;45.60;;;;;;5023645;28;20040;-48
2021/11/20 08:01:06;;;;;;;5.68;3.67;;;20.60;45.60;;;;;;5023235;28;20022;-48
2021/11/20 08:03:35;;;;;;;5.53;4.05;;;20.60;45.60;;;;;;5023875;28;20135;-46
2021/11/20 08:06:22;;;;;;;6.05;4.75;;;20.60;45.60;;;;;;5020470;28;20077;-47
2021/11/20 08:09:15;;;;;;;5.57;4.13;;;20.60;45.50;;;;;;5022168;28;20033;-50
2021/11/20 08:12:05;;;;;;;5.05;3.75;;;20.60;45.50;;;;;;5029561;28;20440;-49
2021/11/20 08:15:05;;;;;;;4.90;4.30;;;20.70;45.50;;;;;;4986182;28;20038;-48
2021/11/20 08:17:52;;;;;;;4.25;3.70;;;20.70;45.40;;;;;;5019168;28;20040;-47
2021/11/20 08:20:27;;;;;;;6.03;4.30;;;20.80;45.40;;;;;;5022321;28;20026;-51
2021/11/20 08:23:14;;;;;;;5.55;3.47;;;21.00;45.50;;;;;;5012173;28;20122;-53
2021/11/20 08:25:43;;;;;;;5.75;3.20;;;21.10;45.40;;;;;;5017412;28;20037;-47
2021/11/20 08:28:14;;;;;;;4.40;3.72;;;21.30;45.20;;;;;;5020155;28;20129;-48
2021/11/20 08:30:40;;;;;;;4.88;3.70;;;21.40;45.00;;;;;;5026122;28;20377;-51
2021/11/20 08:33:07;;;;;;;5.10;4.40;;;21.50;44.90;;;;;;5017156;28;20033;-52
2021/11/20 08:35:54;;;;;;;4.63;4.00;;;21.50;44.60;;;;;;5024138;28;20034;-53
2021/11/20 08:38:29;;;;;;;5.03;3.90;;;21.70;44.50;;;;;;5020907;28;20034;-51
2021/11/20 08:41:08;;;;;;;5.28;4.20;;;21.80;44.20;;;;;;5044827;28;20033;-52
2021/11/20 08:43:38;;;;;;;4.47;3.92;;;21.80;44.00;;;;;;5026608;28;20048;-60
2021/11/20 08:46:09;;;;;;;7.82;4.07;;;22.00;43.90;;;;;;5025927;28;20030;-61
2021/11/20 08:48:36;;;;;;;6.05;4.68;;;22.10;43.80;;;;;;5023230;28;20029;-58
2021/11/20 08:51:10;;;;;;;5.00;4.18;;;22.10;43.70;;;;;;5030141;28;20463;-61
2021/11/20 08:53:38;;;;;;;5.22;3.95;;;22.20;43.60;;;;;;5039075;28;20516;-59
2021/11/20 08:56:05;;;;;;;5.30;4.10;;;22.20;43.50;;;;;;5024760;28;20041;-61
2021/11/20 08:58:35;;;;;;;5.18;4.13;;;22.30;43.40;;;;;;5022106;28;20029;-59
2021/11/20 09:01:10;;;;;;;6.50;4.47;;;22.40;43.20;;;;;;5027959;28;20083;-57
2021/11/20 09:04:14;;;;;;;6.00;4.60;;;22.50;43.10;;;;;;5023828;28;20049;-59
2021/11/20 09:06:42;;;;;;;5.97;4.50;;;22.50;43.00;;;;;;5023956;28;20037;-60
2021/11/20 09:09:38;;;;;;;5.07;4.53;;;22.50;42.90;;;;;;5025849;28;20029;-61
2021/11/20 09:12:23;;;;;;;6.82;4.40;;;22.60;42.70;;;;;;5017471;28;20052;-54
2021/11/20 09:14:54;;;;;;;4.18;3.67;;;22.70;42.60;;;;;;5036983;28;20029;-62
2021/11/20 09:17:25;;;;;;;4.50;3.85;;;22.80;42.60;;;;;;5029945;28;20110;-59
2021/11/20 09:19:52;;;;;;;5.15;4.38;;;22.80;42.40;;;;;;5034885;28;20099;-61
2021/11/20 09:22:22;;;;;;;4.85;4.03;;;22.90;42.30;;;;;;5044269;28;20029;-59
2021/11/20 09:24:55;;;;;;;;;;;22.90;42.20;;;;;;5019193;28;20511;-60
2021/11/20 09:27:25;;;;;;;4.65;4.15;;;22.90;42.20;;;;;;5017709;28;20245;-60
2021/11/20 09:29:53;;;;;;;6.10;4.65;;;22.90;42.00;;;;;;5021945;28;20036;-57
2021/11/20 09:32:19;;;;;;;5.63;4.03;;;23.00;41.90;;;;;;5022880;28;20057;-60
2021/11/20 09:34:46;;;;;;;5.15;4.35;;;23.00;41.80;;;;;;5020978;28;20067;-57
2021/11/20 09:37:24;;;;;;;5.60;4.13;;;23.10;41.80;;;;;;5025037;28;20364;-57
2021/11/20 09:40:01;;;;;;;4.78;4.32;;;23.10;41.60;;;;;;5021359;28;20030;-61
2021/11/20 09:42:36;;;;;;;5.05;4.15;;;23.20;41.50;;;;;;5027532;28;20357;-58
2021/11/20 09:45:16;;;;;;;4.55;3.88;;;23.20;41.30;;;;;;5024494;28;20026;-58
2021/11/20 09:47:57;;;;;;;4.22;3.70;;;23.30;41.30;;;;;;5023250;28;20056;-56
2021/11/20 09:50:43;;;;;;;3.50;3.20;;;23.30;41.10;;;;;;5041019;28;20041;-58
2021/11/20 09:53:10;;;;;;;4.70;3.40;;;23.30;40.90;;;;;;5032862;28;20038;-61
2021/11/20 09:55:43;;;;;;;3.50;3.20;;;23.30;41.00;;;;;;5035793;28;20073;-58
2021/11/20 09:58:16;;;;;;;4.18;3.25;;;23.40;40.90;;;;;;5031490;28;20025;-59
2021/11/20 10:01:04;;;;;;;3.33;3.03;;;23.40;41.40;;;;;;5016398;28;20030;-59
2021/11/20 10:03:45;;;;;;;3.22;2.92;;;23.50;40.70;;;;;;5020711;28;20477;-59
2021/11/20 10:06:28;;;;;;;4.15;3.10;;;23.50;40.60;;;;;;5036149;28;20030;-60
2021/11/20 10:09:31;;;;;;;3.97;3.20;;;23.50;40.60;;;;;;5032880;28;20037;-58
2021/11/20 10:12:26;;;;;;;3.40;3.10;;;23.50;40.60;;;;;;5031137;28;20299;-61
2021/11/20 10:15:05;;;;;;;3.30;3.00;;;23.50;40.50;;;;;;5018956;28;20048;-58
2021/11/20 10:17:36;;;;;;;3.53;3.00;;;23.50;40.60;;;;;;5020481;28;20044;-59
2021/11/20 10:20:17;;;;;;;5.20;3.15;;;23.50;40.60;;;;;;5024026;28;20041;-57
2021/11/20 10:22:52;;;;;;;4.05;3.38;;;23.50;40.60;;;;;;5024348;28;20037;-58
2021/11/20 10:26:05;;;;;;;3.33;3.03;;;23.40;40.60;;;;;;5026146;28;20037;-55
2021/11/20 10:29:08;;;;;;;3.85;3.45;;;23.40;40.60;;;;;;5023142;28;20052;-59
2021/11/20 10:31:46;;;;;;;4.65;3.70;;;23.30;40.50;;;;;;5020989;28;20037;-57
2021/11/20 10:34:23;;;;;;;4.13;3.72;;;23.40;40.60;;;;;;5025025;28;20034;-60
2021/11/20 10:37:11;;;;;;;4.50;4.10;;;23.30;40.50;;;;;;5042174;28;20063;-58
2021/11/20 10:39:36;;;;;;;4.90;4.43;;;23.30;40.50;;;;;;5041762;28;20449;-55
2021/11/20 10:42:14;;;;;;;4.68;4.18;;;23.30;40.50;;;;;;5033733;28;20025;-56
2021/11/20 10:44:39;;;;;;;4.35;3.95;;;23.20;40.50;;;;;;5025412;28;20452;-60
2021/11/20 10:47:11;;;;;;;4.43;4.03;;;23.20;40.50;;;;;;5019771;28;20104;-57
2021/11/20 10:50:05;;;;;;;6.47;4.00;;;23.20;40.50;;;;;;5023793;28;20610;-58
2021/11/20 10:52:44;;;;;;;4.40;3.72;;;23.20;40.50;;;;;;5019904;28;20034;-57
2021/11/20 10:55:26;;;;;;;4.70;4.30;;;23.20;41.20;;;;;;5025038;28;20061;-60
2021/11/20 10:58:32;;;;;;;4.45;3.97;;;23.10;40.50;;;;;;5025227;28;20406;-58
2021/11/20 11:01:35;;;;;;;4.55;3.85;;;23.10;40.60;;;;;;5022265;28;20079;-58
2021/11/20 11:04:35;;;;;;;4.82;4.22;;;23.10;40.60;;;;;;5021183;28;20322;-59
2021/11/20 11:07:23;;;;;;;4.00;3.60;;;23.00;40.70;;;;;;5021634;28;20141;-55
2021/11/20 11:10:01;;;;;;;4.88;4.35;;;23.00;40.80;;;;;;5022587;28;20045;-60
2021/11/20 11:12:49;;;;;;;4.63;4.05;;;23.00;40.80;;;;;;5018141;28;20030;-58
2021/11/20 11:15:47;;;;;;;4.70;4.28;;;23.00;40.80;;;;;;5022119;28;20030;-59
2021/11/20 11:18:40;;;;;;;5.30;4.40;;;23.00;40.80;;;;;;5019480;28;20092;-59
2021/11/20 11:21:48;;;;;;;4.35;3.92;;;22.90;40.80;;;;;;5025030;28;20029;-59
2021/11/20 11:24:20;;;;;;;4.72;4.25;;;22.90;40.90;;;;;;5024129;28;20785;-60
2021/11/20 11:26:52;;;;;;;4.68;4.28;;;22.80;40.90;;;;;;5019715;28;20041;-59
2021/11/20 11:29:24;;;;;;;5.05;4.55;;;22.80;41.00;;;;;;5022631;28;20037;-54
2021/11/20 11:31:51;;;;;;;4.55;4.15;;;22.80;41.00;;;;;;5022175;28;20072;-60
2021/11/20 11:34:30;;;;;;;5.00;4.50;;;22.80;41.10;;;;;;5023653;28;20100;-59
2021/11/20 11:37:06;;;;;;;5.05;4.47;;;22.80;41.10;;;;;;5021197;28;20099;-57
2021/11/20 11:40:00;;;;;;;5.65;4.68;;;22.80;41.10;;;;;;5024853;28;20087;-58
2021/11/20 11:42:46;;;;;;;5.78;5.22;;;22.80;41.20;;;;;;5019301;28;20022;-58
2021/11/20 11:45:46;;;;;;;5.40;4.78;;;22.80;41.20;;;;;;5023883;28;20041;-60
2021/11/20 11:48:50;;;;;;;6.07;5.20;;;22.80;41.20;;;;;;5022641;28;20065;-59
2021/11/20 11:51:55;;;;;;;5.88;5.28;;;22.70;41.20;;;;;;5023270;28;20392;-58
2021/11/20 11:54:38;;;;;;;5.30;4.78;;;22.70;41.30;;;;;;5020063;28;20038;-57
2021/11/20 11:57:19;;;;;;;6.35;5.75;;;22.70;41.30;;;;;;5021299;28;20104;-57
2021/11/20 12:00:38;;;;;;;6.93;6.05;;;22.70;41.40;;;;;;5020133;28;20029;-58
2021/11/20 12:03:32;;;;;;;6.75;6.00;;;22.80;41.40;;;;;;4956447;28;20038;-62
2021/11/20 12:06:45;;;;;;;6.18;5.57;;;22.80;41.50;;;;;;5027737;28;20091;-57
2021/11/20 12:09:23;;;;;;;5.95;5.35;;;22.70;41.50;;;;;;5028212;28;20048;-56
2021/11/20 12:11:50;;;;;;;7.00;5.50;;;22.70;41.60;;;;;;5027333;28;20442;-56
2021/11/20 12:14:20;;;;;;;6.70;5.85;;;22.80;41.70;;;;;;5025629;28;20108;-59
2021/11/20 12:17:02;;;;;;;6.07;5.57;;;22.80;42.00;;;;;;5025332;28;20029;-60
2021/11/20 12:19:54;;;;;;;6.22;4.78;;;22.80;42.00;;;;;;5020772;28;20026;-61
2021/11/20 12:22:32;;;;;;;5.20;4.70;;;22.90;42.00;;;;;;5022974;28;20034;-60
2021/11/20 12:25:20;;;;;;;5.28;4.70;;;22.90;42.00;;;;;;5023276;28;20021;-60
2021/11/20 12:27:49;;;;;;;4.90;4.38;;;23.00;41.90;;;;;;5024479;28;20433;-60
2021/11/20 12:30:40;;;;;;;7.18;4.80;;;23.00;41.90;;;;;;5022925;28;20088;-61
2021/11/20 12:33:24;;;;;;;5.15;4.65;;;23.10;41.80;;;;;;5024463;28;20026;-56
2021/11/20 12:35:50;;;;;;;6.90;4.13;;;23.10;41.90;;;;;;5018830;28;20041;-59
2021/11/20 12:38:39;;;;;;;4.40;4.00;;;23.10;42.10;;;;;;5020506;28;20026;-60
2021/11/20 12:41:37;;;;;;;4.28;3.88;;;23.20;41.80;;;;;;5018758;28;20068;-60
2021/11/20 12:44:41;;;;;;;4.13;3.72;;;23.10;41.60;;;;;;5025215;28;20030;-60
2021/11/20 12:47:45;;;;;;;4.20;3.80;;;23.20;41.60;;;;;;5020914;28;20045;-61
2021/11/20 12:50:31;;;;;;;4.45;4.03;;;23.20;41.50;;;;;;5022348;28;20033;-60
2021/11/20 12:53:03;;;;;;;4.47;3.83;;;23.20;41.60;;;;;;5025454;28;20021;-60
2021/11/20 12:55:31;;;;;;;3.60;3.30;;;23.20;41.50;;;;;;5022683;28;20133;-56
2021/11/20 12:58:16;;;;;;;4.25;3.85;;;23.20;41.50;;;;;;5022006;28;20034;-60
2021/11/20 13:00:47;;;;;;;4.35;3.85;;;23.20;41.40;;;;;;5025435;28;20052;-58
2021/11/20 13:03:21;;;;;;;4.05;3.40;;;23.20;41.50;;;;;;5018503;28;20030;-63
2021/11/20 13:05:55;;;;;;;4.28;3.88;;;23.30;41.50;;;;;;5021988;28;20033;-62
2021/11/20 13:08:22;;;;;;;4.28;3.75;;;23.20;41.40;;;;;;5017063;28;20342;-59
2021/11/20 13:11:27;;;;;;;4.05;3.65;;;23.20;41.40;;;;;;5018910;28;20368;-60
2021/11/20 13:14:18;;;;;;;3.13;2.83;;;23.30;41.30;;;;;;5025055;28;20175;-62
2021/11/20 13:16:51;;;;;;;3.90;3.50;;;23.20;41.30;;;;;;5021674;28;20413;-60
2021/11/20 13:19:26;;;;;;;3.90;3.28;;;23.20;41.30;;;;;;5024907;28;20107;-60
2021/11/20 13:21:54;;;;;;;3.65;3.35;;;23.20;41.30;;;;;;5022770;28;20084;-60
2021/11/20 13:24:25;;;;;;;3.70;3.30;;;23.20;41.30;;;;;;5022440;28;20036;-61
2021/11/20 13:27:04;;;;;;;4.32;3.92;;;23.20;41.20;;;;;;5018591;28;20065;-61
2021/11/20 13:29:37;;;;;;;4.50;3.80;;;23.20;41.20;;;;;;5026094;28;20037;-61
2021/11/20 13:32:06;;;;;;;4.05;3.22;;;23.20;41.40;;;;;;5018298;28;20034;-59
2021/11/20 13:34:34;;;;;;;3.97;3.58;;;23.10;41.50;;;;;;5018728;28;20041;-61